createdAt,value
2019-03-12T00:01:29.063Z,3.77
2019-03-12T00:03:57.924Z,3.50
2019-03-12T00:06:26.778Z,3.77
2019-03-12T00:08:55.643Z,3.58
2019-03-12T00:11:24.810Z,4.22
2019-03-12T00:13:53.682Z,4.15
2019-03-12T00:16:22.826Z,3.50
2019-03-12T00:18:51.680Z,3.52
2019-03-12T00:21:20.551Z,4.40
2019-03-12T00:23:49.441Z,3.50
2019-03-12T00:26:18.311Z,3.75
2019-03-12T00:28:47.169Z,3.70
2019-03-12T00:31:16.041Z,3.52
2019-03-12T00:33:44.975Z,4.40
2019-03-12T00:36:13.851Z,3.67
2019-03-12T00:38:42.712Z,4.25
2019-03-12T00:41:11.792Z,3.80
2019-03-12T00:43:40.721Z,3.42
2019-03-12T00:46:09.819Z,3.30
2019-03-12T00:48:38.919Z,3.90
2019-03-12T00:51:07.788Z,3.58
2019-03-12T00:53:36.697Z,3.30
2019-03-12T00:56:05.794Z,4.33
2019-03-12T00:58:34.648Z,3.72
2019-03-12T01:01:03.526Z,3.47
2019-03-12T01:03:32.423Z,3.37
2019-03-12T01:06:01.601Z,3.65
2019-03-12T01:08:30.472Z,3.58
2019-03-12T01:10:59.428Z,3.20
2019-03-12T01:13:28.280Z,3.37
2019-03-12T01:15:57.151Z,3.25
2019-03-12T01:18:26.257Z,3.10
2019-03-12T01:20:55.091Z,3.08
2019-03-12T01:23:24.026Z,3.08
2019-03-12T01:25:52.903Z,3.52
2019-03-12T01:28:21.757Z,3.52
2019-03-12T01:30:50.743Z,3.25
2019-03-12T01:33:19.595Z,3.58
2019-03-12T01:35:48.467Z,3.25
2019-03-12T01:38:17.338Z,3.15
2019-03-12T01:40:46.195Z,3.20
2019-03-12T01:43:15.065Z,3.25
2019-03-12T01:45:43.927Z,3.65
2019-03-12T01:48:12.855Z,3.27
2019-03-12T01:50:41.711Z,3.62
2019-03-12T01:53:10.595Z,3.45
2019-03-12T01:55:39.455Z,3.08
2019-03-12T01:58:08.315Z,3.30
2019-03-12T02:00:37.251Z,3.10
2019-03-12T02:03:06.175Z,2.65
2019-03-12T02:05:35.059Z,3.05
2019-03-12T02:08:03.911Z,3.12
2019-03-12T02:10:32.793Z,3.47
2019-03-12T02:13:01.689Z,2.72
2019-03-12T02:15:30.595Z,3.25
2019-03-12T02:17:59.480Z,2.80
2019-03-12T02:20:28.422Z,3.08
2019-03-12T02:22:57.323Z,3.45
2019-03-12T02:25:26.199Z,3.52
2019-03-12T02:27:55.304Z,3.10
2019-03-12T02:30:24.253Z,3.52
2019-03-12T02:32:55.780Z,3.67
2019-03-12T02:35:24.645Z,3.85
2019-03-12T02:37:53.518Z,3.55
2019-03-12T02:40:23.245Z,4.92
2019-03-12T02:42:52.117Z,4.15
2019-03-12T02:45:20.977Z,4.75
2019-03-12T02:47:49.860Z,4.85
2019-03-12T02:50:18.806Z,4.35
2019-03-12T02:52:47.683Z,5.37
2019-03-12T02:55:16.530Z,4.87
2019-03-12T02:57:45.457Z,5.58
2019-03-12T03:00:16.785Z,5.35
2019-03-12T03:02:45.708Z,5.33
2019-03-12T03:05:15.361Z,4.87
2019-03-12T03:07:55.071Z,4.47
2019-03-12T03:10:24.236Z,5.62
2019-03-12T03:12:53.104Z,5.37
2019-03-12T03:15:26.245Z,4.78
2019-03-12T03:17:55.342Z,5.17
2019-03-12T03:20:24.204Z,4.72
2019-03-12T03:22:53.152Z,4.75
2019-03-12T03:25:22.029Z,5.08
2019-03-12T03:27:50.884Z,5.08
2019-03-12T03:30:23.534Z,4.33
2019-03-12T03:32:52.493Z,4.55
2019-03-12T03:35:21.357Z,4.42
2019-03-12T03:37:50.231Z,4.78
2019-03-12T03:40:20.070Z,4.60
2019-03-12T03:42:49.214Z,4.33
2019-03-12T03:45:18.756Z,4.35
2019-03-12T03:47:47.625Z,3.67
2019-03-12T03:50:17.167Z,4.05
2019-03-12T03:52:46.121Z,4.03
2019-03-12T03:55:16.512Z,4.47
2019-03-12T03:57:45.391Z,4.15
2019-03-12T04:00:15.796Z,4.00
2019-03-12T04:02:44.837Z,4.08
2019-03-12T04:05:13.764Z,3.67
2019-03-12T04:07:42.863Z,3.70
2019-03-12T04:10:12.214Z,4.28
2019-03-12T04:12:42.058Z,3.60
2019-03-12T04:15:11.987Z,3.02
2019-03-12T04:17:40.931Z,3.67
2019-03-12T04:20:10.867Z,4.65
2019-03-12T04:22:39.725Z,3.52
2019-03-12T04:25:09.064Z,3.40
2019-03-12T04:27:38.013Z,3.40
2019-03-12T04:30:08.415Z,3.65
2019-03-12T04:32:37.284Z,3.72
2019-03-12T04:35:07.830Z,3.52
2019-03-12T04:37:36.698Z,3.50
2019-03-12T04:40:07.460Z,4.12
2019-03-12T04:42:36.319Z,3.25
2019-03-12T04:45:06.744Z,3.90
2019-03-12T04:47:35.613Z,3.98
2019-03-12T04:50:05.742Z,3.87
2019-03-12T04:52:34.609Z,3.62
2019-03-12T04:55:04.543Z,3.47
2019-03-12T04:57:33.415Z,3.67
2019-03-12T05:00:02.655Z,4.00
2019-03-12T05:02:31.786Z,3.02
2019-03-12T05:05:00.755Z,3.98
2019-03-12T05:07:29.591Z,3.47
2019-03-12T05:09:58.455Z,3.55
2019-03-12T05:12:30.454Z,3.65
2019-03-12T05:14:57.913Z,3.83
2019-03-12T05:17:26.759Z,3.65
2019-03-12T05:19:55.630Z,3.65
2019-03-12T05:22:24.856Z,3.72
2019-03-12T05:24:53.703Z,3.98
2019-03-12T05:27:25.020Z,3.47
2019-03-12T05:29:53.116Z,3.85
2019-03-12T05:32:21.983Z,3.65
2019-03-12T05:34:50.836Z,3.37
2019-03-12T05:37:19.695Z,3.52
2019-03-12T05:39:48.564Z,3.92
2019-03-12T05:42:17.429Z,3.22
2019-03-12T05:44:48.711Z,4.25
2019-03-12T05:47:17.571Z,3.35
2019-03-12T05:49:46.664Z,3.55
2019-03-12T05:52:15.532Z,4.03
2019-03-12T05:54:45.704Z,3.92
2019-03-12T05:57:14.564Z,3.60
2019-03-12T05:59:43.423Z,3.90
2019-03-12T06:02:12.536Z,4.03
2019-03-12T06:04:41.392Z,4.22
2019-03-12T06:07:10.268Z,14.00
2019-03-12T06:09:39.136Z,9.63
2019-03-12T06:12:07.995Z,5.78
2019-03-12T06:14:36.873Z,5.40
2019-03-12T06:17:05.724Z,5.65
2019-03-12T06:19:34.592Z,4.75
2019-03-12T06:22:03.465Z,8.28
2019-03-12T06:24:32.323Z,8.00
2019-03-12T06:27:01.188Z,7.50
2019-03-12T06:29:30.076Z,6.00
2019-03-12T06:32:07.751Z,5.30
2019-03-12T06:34:38.268Z,4.72
2019-03-12T06:37:11.572Z,5.25
2019-03-12T06:39:43.195Z,4.67
2019-03-12T06:42:16.695Z,4.12
2019-03-12T06:45:05.563Z,4.17
2019-03-12T06:47:42.091Z,3.90
2019-03-12T06:50:27.776Z,4.42
2019-03-12T06:53:04.412Z,4.55
2019-03-12T06:55:51.708Z,4.78
2019-03-12T06:58:31.370Z,4.97
2019-03-12T07:01:08.050Z,5.10
2019-03-12T07:03:46.739Z,4.90
2019-03-12T07:06:34.110Z,4.67
2019-03-12T07:09:20.890Z,5.05
2019-03-12T07:12:00.338Z,4.60
2019-03-12T07:14:44.311Z,3.77
2019-03-12T07:17:31.271Z,4.10
2019-03-12T07:20:07.872Z,4.15
2019-03-12T07:22:54.640Z,4.37
2019-03-12T07:25:28.138Z,6.83
2019-03-12T07:28:10.716Z,5.97
2019-03-12T07:30:41.236Z,5.67
2019-03-12T07:33:28.087Z,5.80
2019-03-12T07:36:10.646Z,5.30
2019-03-12T07:38:53.287Z,4.85
2019-03-12T07:41:36.087Z,5.15
2019-03-12T07:44:09.323Z,5.50
2019-03-12T07:46:45.972Z,5.67
2019-03-12T07:49:22.554Z,5.83
2019-03-12T07:52:08.506Z,5.75
2019-03-12T07:57:07.316Z,5.58
2019-03-12T07:59:40.745Z,5.90
2019-03-12T08:02:26.240Z,6.33
2019-03-12T08:05:13.232Z,6.67
2019-03-12T08:07:55.900Z,6.62
2019-03-12T08:10:26.395Z,8.05
2019-03-12T08:13:00.352Z,18.00
2019-03-12T08:15:46.105Z,26.97
2019-03-12T08:18:23.361Z,24.25
2019-03-12T08:20:53.869Z,18.52
2019-03-12T08:23:36.398Z,17.55
2019-03-12T08:26:22.241Z,15.13
2019-03-12T08:29:04.556Z,12.63
2019-03-12T08:31:37.741Z,10.90
2019-03-12T08:34:23.488Z,9.43
2019-03-12T08:36:54.248Z,8.85
2019-03-12T08:39:30.436Z,9.43
2019-03-12T08:42:06.689Z,7.30
2019-03-12T08:44:46.344Z,7.00
2019-03-12T08:47:19.612Z,6.85
2019-03-12T08:49:59.037Z,6.83
2019-03-12T08:52:29.534Z,6.92
2019-03-12T08:55:03.487Z,7.00
2019-03-12T08:57:38.089Z,6.00
2019-03-12T09:00:26.459Z,6.50
2019-03-12T09:03:15.552Z,7.35
2019-03-12T09:05:46.048Z,6.92
2019-03-12T09:08:33.039Z,7.42
2019-03-12T09:11:18.836Z,8.28
2019-03-12T09:14:05.716Z,4.78
2019-03-12T09:16:41.883Z,7.03
2019-03-12T09:19:15.035Z,6.78
2019-03-12T09:21:45.553Z,5.33
2019-03-12T09:24:34.290Z,5.37
2019-03-12T09:27:04.787Z,6.08
2019-03-12T09:29:41.137Z,5.70
2019-03-12T09:32:28.298Z,5.28
2019-03-12T09:35:07.818Z,3.52
2019-03-12T09:37:41.207Z,4.67
2019-03-12T09:40:28.192Z,5.27
2019-03-12T09:43:04.382Z,5.10
2019-03-12T09:45:38.903Z,4.37
2019-03-12T09:48:18.611Z,4.37
2019-03-12T09:50:52.507Z,4.17
2019-03-12T09:53:38.269Z,4.30
2019-03-12T09:56:26.705Z,3.65
2019-03-12T09:59:03.323Z,3.60
2019-03-12T10:01:51.831Z,4.30
2019-03-12T10:04:25.256Z,3.92
2019-03-12T10:07:14.180Z,4.03
2019-03-12T10:09:44.679Z,3.87
2019-03-12T10:12:15.183Z,3.27
2019-03-12T10:14:45.696Z,3.27
2019-03-12T10:17:19.154Z,3.20
2019-03-12T10:19:49.892Z,4.42
2019-03-12T10:22:20.416Z,2.83
2019-03-12T10:24:50.908Z,3.35
2019-03-12T10:27:39.164Z,3.47
2019-03-12T10:30:22.671Z,3.15
2019-03-12T10:32:59.456Z,3.08
2019-03-12T10:35:32.887Z,3.17
2019-03-12T10:38:42.511Z,3.92
2019-03-12T10:41:15.946Z,3.42
2019-03-12T10:43:45.096Z,3.50
2019-03-12T10:46:15.828Z,3.27
2019-03-12T10:48:44.687Z,3.70
2019-03-12T10:51:13.553Z,3.83
2019-03-12T10:53:42.408Z,3.45
2019-03-12T10:56:11.344Z,3.45
2019-03-12T10:58:40.203Z,3.52
2019-03-12T11:01:09.173Z,3.40
2019-03-12T11:03:38.056Z,3.10
2019-03-12T11:06:06.910Z,3.42
2019-03-12T11:08:35.779Z,3.58
2019-03-12T11:11:04.662Z,4.05
2019-03-12T11:13:33.740Z,3.15
2019-03-12T11:16:02.607Z,2.90
2019-03-12T11:18:31.475Z,3.05
2019-03-12T11:21:00.370Z,4.47
2019-03-12T11:23:29.236Z,3.55
2019-03-12T11:25:58.112Z,3.27
2019-03-12T11:28:27.009Z,2.87
2019-03-12T11:30:56.188Z,3.15
2019-03-12T11:33:25.059Z,3.52
2019-03-12T11:35:54.161Z,3.25
2019-03-12T11:38:23.282Z,3.22
2019-03-12T11:40:57.083Z,3.10
2019-03-12T11:43:25.960Z,2.77
2019-03-12T11:45:54.841Z,3.12
2019-03-12T11:48:26.861Z,2.98
2019-03-12T11:50:55.765Z,2.87
2019-03-12T11:53:24.718Z,2.85
2019-03-12T11:55:53.628Z,3.25
2019-03-12T11:58:22.506Z,3.20
2019-03-12T12:00:59.226Z,2.40
2019-03-12T12:03:28.316Z,2.67
2019-03-12T12:05:57.177Z,3.00
2019-03-12T12:08:27.371Z,2.83
2019-03-12T12:10:56.305Z,3.00
2019-03-12T12:13:25.196Z,3.70
2019-03-12T12:15:54.143Z,2.62
2019-03-12T12:18:23.335Z,2.47
2019-03-12T12:20:52.208Z,2.60
2019-03-12T12:23:21.084Z,2.62
2019-03-12T12:25:50.034Z,2.90
2019-03-12T12:28:18.919Z,2.70
2019-03-12T12:30:47.792Z,3.00
2019-03-12T12:33:16.720Z,2.80
2019-03-12T12:35:45.599Z,2.85
2019-03-12T12:38:14.483Z,2.72
2019-03-12T12:40:43.360Z,2.77
2019-03-12T12:43:12.231Z,3.30
2019-03-12T12:45:41.091Z,3.37
2019-03-12T12:48:10.040Z,4.58
2019-03-12T12:50:39.440Z,2.77
2019-03-12T12:53:08.379Z,2.52
2019-03-12T12:55:37.480Z,2.70
2019-03-12T12:58:06.937Z,2.98
2019-03-12T13:00:38.365Z,2.33
2019-03-12T13:03:06.703Z,2.85
2019-03-12T13:05:35.578Z,2.47
2019-03-12T13:08:04.459Z,3.12
2019-03-12T13:10:34.197Z,2.90
2019-03-12T13:13:03.156Z,3.00
2019-03-12T13:15:32.029Z,2.70
2019-03-12T13:18:04.662Z,3.05
2019-03-12T13:20:33.523Z,2.65
2019-03-12T13:23:02.385Z,3.10
2019-03-12T13:25:31.251Z,3.17
2019-03-12T13:28:00.111Z,2.95
2019-03-12T13:30:29.000Z,3.35
2019-03-12T13:32:57.861Z,3.12
2019-03-12T13:35:26.796Z,3.33
2019-03-12T13:37:55.652Z,2.77
2019-03-12T13:40:25.669Z,2.90
2019-03-12T13:42:54.599Z,3.12
2019-03-12T13:45:28.355Z,2.90
2019-03-12T13:47:57.700Z,3.05
2019-03-12T13:50:26.714Z,2.77
2019-03-12T13:52:58.098Z,2.72
2019-03-12T13:55:27.414Z,3.17
2019-03-12T13:58:02.197Z,3.40
2019-03-12T14:00:34.980Z,3.30
2019-03-12T14:03:16.393Z,3.02
2019-03-12T14:05:46.075Z,3.22
2019-03-12T14:08:25.810Z,2.92
2019-03-12T14:10:56.059Z,3.22
2019-03-12T14:13:28.073Z,3.22
2019-03-12T14:18:55.292Z,2.70
2019-03-12T14:21:34.852Z,3.02
2019-03-12T14:24:05.220Z,2.55
2019-03-12T14:26:35.754Z,2.62
2019-03-12T14:29:05.728Z,3.00
2019-03-12T14:31:34.934Z,2.77
2019-03-12T14:34:04.321Z,2.70
2019-03-12T14:36:34.360Z,2.40
2019-03-12T14:39:30.145Z,2.50
2019-03-12T14:41:59.689Z,2.70
2019-03-12T14:44:28.840Z,2.42
2019-03-12T14:46:57.844Z,3.20
2019-03-12T14:49:26.799Z,2.70
2019-03-12T14:51:57.425Z,2.75
2019-03-12T14:54:27.368Z,2.50
2019-03-12T14:56:56.493Z,2.72
2019-03-12T14:59:25.366Z,2.55
2019-03-12T15:01:54.223Z,2.60
2019-03-12T15:04:23.156Z,2.80
2019-03-12T15:06:52.031Z,2.60
2019-03-12T15:09:21.864Z,2.45
2019-03-12T15:11:51.684Z,2.80
2019-03-12T15:14:21.738Z,2.70
2019-03-12T15:16:50.625Z,2.02
2019-03-12T15:19:19.719Z,2.58
2019-03-12T15:21:48.579Z,2.70
2019-03-12T15:24:17.676Z,2.55
2019-03-12T15:26:46.628Z,2.20
2019-03-12T15:29:15.480Z,2.33
2019-03-12T15:31:44.344Z,2.47
2019-03-12T15:34:13.248Z,1.92
2019-03-12T15:36:45.255Z,2.62
2019-03-12T15:39:13.104Z,2.25
2019-03-12T15:41:43.552Z,2.40
2019-03-12T15:44:12.440Z,2.02
2019-03-12T15:46:41.624Z,2.27
2019-03-12T15:49:10.715Z,2.30
2019-03-12T15:51:39.596Z,2.08
2019-03-12T15:54:08.684Z,2.40
2019-03-12T15:56:37.819Z,2.40
2019-03-12T15:59:07.627Z,2.17
2019-03-12T16:01:37.689Z,2.08
2019-03-12T16:04:06.783Z,2.30
2019-03-12T16:06:35.719Z,2.40
2019-03-12T16:09:11.247Z,1.90
2019-03-12T16:12:02.524Z,2.20
2019-03-12T16:14:31.875Z,2.00
2019-03-12T16:17:00.795Z,2.10
2019-03-12T16:19:29.673Z,2.27
2019-03-12T16:21:58.789Z,2.05
2019-03-12T16:24:28.982Z,2.27
2019-03-12T16:26:57.905Z,2.10
2019-03-12T16:29:26.763Z,2.30
2019-03-12T16:32:02.837Z,2.10
2019-03-12T16:34:32.661Z,1.67
2019-03-12T16:37:02.104Z,2.37
2019-03-12T16:39:31.356Z,2.02
2019-03-12T16:42:00.488Z,1.75
2019-03-12T16:44:29.957Z,2.05
2019-03-12T16:46:58.975Z,1.95
2019-03-12T16:49:30.890Z,2.10
2019-03-12T16:52:00.744Z,1.60
2019-03-12T16:54:29.696Z,1.80
2019-03-12T16:56:58.615Z,1.80
2019-03-12T16:59:27.452Z,1.98
2019-03-12T17:01:56.317Z,2.00
2019-03-12T17:04:25.193Z,1.90
2019-03-12T17:06:54.064Z,2.05
2019-03-12T17:09:22.921Z,1.90
2019-03-12T17:11:52.102Z,1.70
2019-03-12T17:14:20.972Z,1.92
2019-03-12T17:16:49.836Z,2.05
2019-03-12T17:19:18.791Z,1.70
2019-03-12T17:21:47.652Z,1.90
2019-03-12T17:24:16.520Z,1.45
2019-03-12T17:26:45.660Z,2.50
2019-03-12T17:29:14.758Z,2.15
2019-03-12T17:31:43.863Z,2.55
2019-03-12T17:34:12.976Z,1.72
2019-03-12T17:36:41.852Z,1.92
2019-03-12T17:39:10.819Z,1.70
2019-03-12T17:41:41.432Z,1.52
2019-03-12T17:44:10.292Z,1.57
2019-03-12T17:46:39.179Z,1.50
2019-03-12T17:49:08.060Z,2.00
2019-03-12T17:51:46.829Z,1.35
2019-03-12T17:54:15.713Z,1.62
2019-03-12T17:56:44.658Z,1.42
2019-03-12T17:59:13.655Z,1.57
2019-03-12T18:01:43.595Z,1.55
2019-03-12T18:04:12.459Z,1.62
2019-03-12T18:06:41.352Z,1.60
2019-03-12T18:09:10.222Z,1.27
2019-03-12T18:11:39.173Z,1.72
2019-03-12T18:14:08.980Z,1.52
2019-03-12T18:16:41.423Z,1.47
2019-03-12T18:19:11.593Z,1.62
2019-03-12T18:21:42.609Z,1.53
2019-03-12T18:24:13.729Z,1.47
2019-03-12T18:26:43.885Z,1.17
2019-03-12T18:29:13.757Z,1.50
2019-03-12T18:31:42.620Z,1.32
2019-03-12T18:34:11.496Z,1.50
2019-03-12T18:36:40.379Z,1.32
2019-03-12T18:39:09.612Z,1.42
2019-03-12T18:41:40.059Z,1.35
2019-03-12T18:44:08.938Z,1.70
2019-03-12T18:46:37.813Z,1.47
2019-03-12T18:49:06.695Z,1.60
2019-03-12T18:51:35.578Z,1.70
2019-03-12T18:54:05.352Z,1.60
2019-03-12T18:56:34.240Z,1.75
2019-03-12T18:59:03.137Z,1.75
2019-03-12T19:01:32.104Z,1.42
2019-03-12T19:04:00.986Z,1.80
2019-03-12T19:06:29.986Z,1.70
2019-03-12T19:08:58.861Z,1.80
2019-03-12T19:11:27.740Z,2.27
2019-03-12T19:13:56.649Z,1.70
2019-03-12T19:16:25.517Z,1.42
2019-03-12T19:18:56.340Z,1.77
2019-03-12T19:21:25.228Z,1.50
2019-03-12T19:23:54.092Z,1.98
2019-03-12T19:26:23.039Z,1.57
2019-03-12T19:28:52.074Z,1.67
2019-03-12T19:31:25.640Z,1.85
2019-03-12T19:33:56.054Z,2.40
2019-03-12T19:36:24.983Z,1.98
2019-03-12T19:38:54.824Z,1.75
2019-03-12T19:41:23.697Z,2.08
2019-03-12T19:43:52.579Z,2.08
2019-03-12T19:46:21.455Z,1.90
2019-03-12T19:48:50.562Z,2.00
2019-03-12T19:51:19.433Z,2.20
2019-03-12T19:53:48.627Z,1.92
2019-03-12T19:56:17.742Z,1.90
2019-03-12T19:58:46.741Z,2.02
2019-03-12T20:01:15.987Z,2.42
2019-03-12T20:03:44.906Z,1.95
2019-03-12T20:06:14.020Z,2.00
2019-03-12T20:08:42.912Z,2.30
2019-03-12T20:11:28.314Z,2.02
2019-03-12T20:14:18.293Z,2.12
2019-03-12T20:17:09.471Z,2.10
2019-03-12T20:19:54.219Z,2.00
2019-03-12T20:22:30.369Z,2.25
2019-03-12T20:25:17.626Z,1.72
2019-03-12T20:27:48.017Z,1.90
2019-03-12T20:30:35.221Z,2.00
2019-03-12T20:33:45.495Z,2.05
2019-03-12T20:36:28.156Z,1.90
2019-03-12T20:39:16.274Z,1.92
2019-03-12T20:41:53.070Z,2.25
2019-03-12T20:44:23.783Z,2.08
2019-03-12T20:46:54.391Z,2.08
2019-03-12T20:49:33.844Z,2.10
2019-03-12T20:52:13.912Z,2.37
2019-03-12T20:57:31.300Z,2.00
2019-03-12T21:00:07.958Z,1.72
2019-03-12T21:02:51.263Z,2.10
2019-03-12T21:05:21.791Z,2.12
2019-03-12T21:08:25.089Z,2.22
2019-03-12T21:11:14.679Z,2.17
2019-03-12T21:13:45.271Z,2.50
2019-03-12T21:16:44.617Z,2.35
2019-03-12T21:19:32.340Z,2.50
2019-03-12T21:22:19.673Z,2.30
2019-03-12T21:25:08.397Z,2.12
2019-03-12T21:27:59.271Z,2.15
2019-03-12T21:30:30.024Z,1.98
2019-03-12T21:33:00.508Z,1.90
2019-03-12T21:35:32.423Z,2.05
2019-03-12T21:38:04.638Z,2.10
2019-03-12T21:40:33.541Z,2.10
2019-03-12T21:43:02.407Z,2.05
2019-03-12T21:45:31.272Z,2.15
2019-03-12T21:48:09.825Z,2.10
2019-03-12T21:50:45.424Z,2.33
2019-03-12T21:53:16.477Z,2.17
2019-03-12T21:55:47.605Z,2.12
2019-03-12T21:58:17.584Z,2.40
2019-03-12T22:00:50.205Z,2.80
2019-03-12T22:05:51.582Z,2.20
2019-03-12T22:08:21.604Z,2.47
2019-03-12T22:10:54.405Z,2.25
2019-03-12T22:13:23.245Z,2.30
2019-03-12T22:15:52.127Z,2.22
2019-03-12T22:18:21.963Z,2.45
2019-03-12T22:20:51.464Z,2.20
2019-03-12T22:23:22.086Z,2.10
2019-03-12T22:25:50.955Z,1.98
2019-03-12T22:28:19.816Z,2.10
2019-03-12T22:30:49.634Z,2.52
2019-03-12T22:33:18.491Z,2.70
2019-03-12T22:35:47.353Z,2.25
2019-03-12T22:38:16.235Z,2.62
2019-03-12T22:40:45.096Z,3.00
2019-03-12T22:43:14.931Z,2.60
2019-03-12T22:45:44.023Z,2.90
2019-03-12T22:48:12.868Z,2.72
2019-03-12T22:50:41.733Z,2.70
2019-03-12T22:53:10.587Z,2.58
2019-03-12T22:55:39.456Z,2.85
2019-03-12T22:58:08.323Z,2.30
2019-03-12T23:00:55.743Z,2.47
2019-03-12T23:03:42.377Z,2.80
2019-03-12T23:06:29.152Z,2.35
2019-03-12T23:09:15.978Z,2.37
2019-03-12T23:11:46.683Z,2.50
2019-03-12T23:14:15.913Z,2.20
2019-03-12T23:16:44.835Z,2.10
2019-03-12T23:19:13.779Z,1.40
2019-03-12T23:21:42.840Z,1.27
2019-03-12T23:24:11.771Z,1.32
2019-03-12T23:26:40.802Z,1.50
2019-03-12T23:29:10.792Z,1.35
2019-03-12T23:31:39.788Z,1.15
2019-03-12T23:34:08.874Z,1.37
2019-03-12T23:36:37.733Z,1.00
2019-03-12T23:39:07.048Z,0.98
2019-03-12T23:41:37.583Z,0.70
2019-03-12T23:44:06.434Z,0.62
2019-03-12T23:46:35.303Z,0.55
2019-03-12T23:49:04.385Z,0.50
2019-03-12T23:51:33.245Z,0.50
2019-03-12T23:54:02.097Z,0.50
2019-03-12T23:56:31.204Z,0.70
2019-03-12T23:59:00.063Z,0.50
